Time;durP1;ratioP1;P1;durP2;ratioP2;P2;SDS_P1;SDS_P2;PMS_P1;PMS_P2;Temp;Humidity;BMP_temperature;BMP_pressure;BME280_temperature;BME280_humidity;BME280_pressure;Samples;Min_cycle;Max_cycle;Signal;HPM_P1;HPM_P2
2024/01/04 00:02:30;;;;;;;;;;;6.40;99.90;;;;;;5123109;27;20021;-84
2024/01/04 00:04:56;;;;;;;;;;;6.40;99.90;;;;;;5089370;27;19938;-84
2024/01/04 00:07:21;;;;;;;;;;;6.40;99.90;;;;;;5102909;27;19949;-84
2024/01/04 00:09:48;;;;;;;;;;;6.70;99.90;;;;;;5120744;27;20281;-85
2024/01/04 00:12:14;;;;;;;;;;;6.40;99.90;;;;;;5104692;27;19927;-83
2024/01/04 00:14:40;;;;;;;;;;;6.40;99.90;;;;;;5122958;27;19923;-84
2024/01/04 00:17:09;;;;;;;;;;;6.30;99.90;;;;;;5122916;27;19970;-83
2024/01/04 00:19:34;;;;;;;;;;;6.30;99.90;;;;;;5103462;27;20548;-85
2024/01/04 00:22:00;;;;;;;;;;;6.30;99.90;;;;;;5104232;27;19923;-83
2024/01/04 00:24:31;;;;;;;;;;;6.30;99.90;;;;;;5104494;27;19966;-84
2024/01/04 00:26:57;;;;;;;;;;;6.30;99.90;;;;;;5105118;27;20377;-84
2024/01/04 00:29:25;;;;;;;;;;;6.60;99.90;;;;;;5121132;27;19927;-84
2024/01/04 00:31:51;;;;;;;;;;;6.30;99.90;;;;;;5119641;27;19927;-83
2024/01/04 00:34:17;;;;;;;;;;;6.30;99.90;;;;;;5123170;27;19927;-83
2024/01/04 00:36:43;;;;;;;;;;;6.80;99.90;;;;;;5102208;27;19929;-84
2024/01/04 00:39:08;;;;;;;;;;;6.30;99.90;;;;;;5125751;27;19933;-84
2024/01/04 00:41:34;;;;;;;;;;;6.30;99.90;;;;;;5106314;27;19923;-84
2024/01/04 00:44:01;;;;;;;;;;;6.30;99.90;;;;;;5107914;27;20422;-84
2024/01/04 00:46:30;;;;;;;;;;;6.30;99.90;;;;;;5124670;27;20018;-84
2024/01/04 00:48:55;;;;;;;;;;;6.30;99.90;;;;;;5106534;27;20009;-84
2024/01/04 00:51:21;;;;;;;;;;;6.40;99.90;;;;;;5121546;27;19931;-83
2024/01/04 00:53:47;;;;;;;;;;;6.30;99.90;;;;;;5106124;27;19937;-83
2024/01/04 00:56:13;;;;;;;;;;;6.20;99.90;;;;;;5087806;27;19923;-84
2024/01/04 00:58:39;;;;;;;;;;;6.50;99.90;;;;;;5106363;27;19927;-83
2024/01/04 01:01:05;;;;;;;;;;;6.20;99.90;;;;;;5103963;27;20476;-84
2024/01/04 01:03:30;;;;;;;;;;;7.30;99.90;;;;;;5104735;27;19931;-83
2024/01/04 01:05:57;;;;;;;;;;;6.20;99.90;;;;;;5104862;27;19927;-83
2024/01/04 01:08:22;;;;;;;;;;;6.20;99.90;;;;;;5123426;27;19934;-83
2024/01/04 01:10:48;;;;;;;;;;;6.70;99.90;;;;;;5092719;27;20844;-83
2024/01/04 01:13:20;;;;;;;;;;;6.20;99.90;;;;;;5091955;27;19930;-84
2024/01/04 01:15:49;;;;;;;;;;;6.20;99.90;;;;;;5094003;27;20385;-83
2024/01/04 01:18:15;;;;;;;;;;;6.10;99.90;;;;;;5106239;27;19923;-83
2024/01/04 01:20:40;;;;;;;;;;;6.10;99.90;;;;;;5086664;27;19938;-83
2024/01/04 01:23:07;;;;;;;;;;;6.10;99.90;;;;;;5111677;27;19927;-83
2024/01/04 01:25:33;;;;;;;;;;;6.20;99.90;;;;;;5104822;27;19939;-83
2024/01/04 01:27:59;;;;;;;;;;;6.20;99.90;;;;;;5089549;27;20431;-83
2024/01/04 01:30:24;;;;;;;;;;;6.20;99.90;;;;;;5089341;27;19923;-83
2024/01/04 01:32:50;;;;;;;;;;;6.10;99.90;;;;;;5106640;27;19923;-83
2024/01/04 01:35:15;;;;;;;;;;;6.10;99.90;;;;;;5104400;27;20014;-83
2024/01/04 01:37:42;;;;;;;;;;;6.10;99.90;;;;;;5103242;27;19930;-82
2024/01/04 01:40:08;;;;;;;;;;;6.10;99.90;;;;;;5103983;27;20433;-83
2024/01/04 01:42:33;;;;;;;;;;;6.10;99.90;;;;;;5086872;27;19927;-84
2024/01/04 01:45:02;;;;;;;;;;;6.00;99.90;;;;;;5106328;27;19927;-83
2024/01/04 01:47:28;;;;;;;;;;;6.50;99.90;;;;;;5088363;27;20272;-82
2024/01/04 01:49:54;;;;;;;;;;;6.00;99.90;;;;;;5122656;27;20844;-82
2024/01/04 01:52:20;;;;;;;;;;;6.00;99.90;;;;;;5106619;27;20265;-82
2024/01/04 01:54:47;;;;;;;;;;;6.10;99.90;;;;;;5106981;27;20386;-83
2024/01/04 01:57:16;;;;;;;;;;;6.00;99.90;;;;;;5119834;27;19930;-83
2024/01/04 01:59:43;;;;;;;;;;;6.00;99.90;;;;;;5121172;27;19927;-82
2024/01/04 02:02:09;;;;;;;;;;;6.20;99.90;;;;;;5106034;27;20595;-83
2024/01/04 02:04:34;;;;;;;;;;;6.60;99.90;;;;;;5089403;27;20074;-82
2024/01/04 02:07:00;;;;;;;;;;;5.90;99.90;;;;;;5120074;27;20014;-83
2024/01/04 02:09:26;;;;;;;;;;;5.90;99.90;;;;;;5103188;27;20059;-84
2024/01/04 02:12:01;;;;;;;;;;;6.00;99.90;;;;;;5102990;27;19927;-83
2024/01/04 02:14:26;;;;;;;;;;;5.90;99.90;;;;;;5105255;27;19931;-83
2024/01/04 02:16:52;;;;;;;;;;;6.00;99.90;;;;;;5093324;27;19923;-82
2024/01/04 02:19:19;;;;;;;;;;;5.90;99.90;;;;;;5103915;27;20498;-85
2024/01/04 02:21:44;;;;;;;;;;;5.90;99.90;;;;;;5103481;27;20149;-83
2024/01/04 02:24:10;;;;;;;;;;;5.90;99.90;;;;;;5104214;27;20659;-83
2024/01/04 02:26:35;;;;;;;;;;;5.90;99.90;;;;;;5108970;27;20613;-83
2024/01/04 02:29:01;;;;;;;;;;;5.90;99.90;;;;;;5085250;27;19924;-83
2024/01/04 02:31:26;;;;;;;;;;;5.90;99.90;;;;;;5090200;27;21513;-81
2024/01/04 02:33:52;;;;;;;;;;;5.90;99.90;;;;;;5122383;27;20400;-83
2024/01/04 02:36:18;;;;;;;;;;;5.90;99.90;;;;;;5086749;27;19923;-82
2024/01/04 02:38:48;;;;;;;;;;;5.90;99.90;;;;;;5103471;27;19979;-83
2024/01/04 02:41:14;;;;;;;;;;;5.80;99.90;;;;;;5102319;27;19934;-83
2024/01/04 02:43:39;;;;;;;;;;;6.00;99.90;;;;;;5118352;27;20034;-84
2024/01/04 02:46:08;;;;;;;;;;;5.80;99.90;;;;;;5122120;27;19953;-83
2024/01/04 02:48:37;;;;;;;;;;;5.90;99.90;;;;;;5119545;27;19927;-83
2024/01/04 02:51:02;;;;;;;;;;;5.80;99.90;;;;;;5121034;27;19927;-82
2024/01/04 02:53:28;;;;;;;;;;;5.70;99.90;;;;;;5106262;27;19972;-83
2024/01/04 02:55:55;;;;;;;;;;;6.10;99.90;;;;;;5090962;27;19934;-83
2024/01/04 02:58:20;;;;;;;;;;;5.90;99.90;;;;;;5122145;27;19933;-83
2024/01/04 03:00:46;;;;;;;;;;;5.70;99.90;;;;;;5103679;27;19931;-81
2024/01/04 03:03:11;;;;;;;;;;;5.70;99.90;;;;;;5102720;27;19930;-83
2024/01/04 03:05:37;;;;;;;;;;;5.70;99.90;;;;;;5103898;27;19923;-83
2024/01/04 03:08:03;;;;;;;;;;;5.70;99.90;;;;;;5093636;27;20313;-83
2024/01/04 03:10:28;;;;;;;;;;;5.70;99.90;;;;;;5093815;27;19927;-84
2024/01/04 03:12:55;;;;;;;;;;;5.70;99.90;;;;;;5121350;27;19923;-83
2024/01/04 03:15:21;;;;;;;;;;;5.70;99.90;;;;;;5119340;27;19980;-83
2024/01/04 03:17:47;;;;;;;;;;;5.70;99.90;;;;;;5102888;27;20075;-82
2024/01/04 03:20:12;;;;;;;;;;;5.70;99.90;;;;;;5102933;27;20014;-83
2024/01/04 03:22:39;;;;;;;;;;;5.70;99.90;;;;;;5103963;27;19931;-83
2024/01/04 03:25:05;;;;;;;;;;;5.70;99.90;;;;;;5104030;27;19927;-83
2024/01/04 03:27:33;;;;;;;;;;;5.70;99.90;;;;;;5105185;27;20386;-83
2024/01/04 03:29:59;;;;;;;;;;;5.70;99.90;;;;;;5093388;27;19928;-82
2024/01/04 03:32:24;;;;;;;;;;;5.60;99.90;;;;;;5092676;27;19927;-82
2024/01/04 03:34:51;;;;;;;;;;;5.60;99.90;;;;;;5087604;27;20161;-83
2024/01/04 03:37:16;;;;;;;;;;;5.60;99.90;;;;;;5136513;27;20289;-83
2024/01/04 03:39:42;;;;;;;;;;;5.50;99.90;;;;;;5103337;27;20043;-83
2024/01/04 03:42:08;;;;;;;;;;;5.50;99.90;;;;;;5104755;27;20385;-83
2024/01/04 03:44:33;;;;;;;;;;;5.60;99.90;;;;;;5103402;27;19934;-83
2024/01/04 03:46:59;;;;;;;;;;;5.70;99.90;;;;;;5086072;27;20053;-83
2024/01/04 03:49:24;;;;;;;;;;;5.60;99.90;;;;;;5119617;27;19935;-83
2024/01/04 03:51:50;;;;;;;;;;;5.50;99.90;;;;;;5119714;27;19934;-83
2024/01/04 03:54:17;;;;;;;;;;;5.00;99.90;;;;;;5102261;27;19939;-82
2024/01/04 03:56:43;;;;;;;;;;;5.40;99.90;;;;;;5102161;27;19927;-82
2024/01/04 03:59:08;;;;;;;;;;;5.60;99.90;;;;;;5103368;27;19975;-83
2024/01/04 04:01:41;;;;;;;;;;;5.50;99.90;;;;;;5120494;27;19930;-82
2024/01/04 04:04:07;;;;;;;;;;;5.60;99.90;;;;;;5103936;27;19931;-83
2024/01/04 04:06:32;;;;;;;;;;;5.80;99.90;;;;;;5105049;27;20005;-82
2024/01/04 04:08:58;;;;;;;;;;;5.70;99.90;;;;;;5118478;27;19927;-83
2024/01/04 04:11:24;;;;;;;;;;;5.60;99.90;;;;;;5086980;27;20425;-82
2024/01/04 04:13:49;;;;;;;;;;;5.70;99.90;;;;;;5108582;27;19935;-83
2024/01/04 04:16:15;;;;;;;;;;;5.70;99.90;;;;;;5125723;27;20334;-83
2024/01/04 04:18:42;;;;;;;;;;;5.50;99.90;;;;;;5125623;27;20447;-83
2024/01/04 04:21:08;;;;;;;;;;;5.50;99.90;;;;;;5089243;27;19931;-82
2024/01/04 04:23:33;;;;;;;;;;;5.40;99.90;;;;;;5106992;27;19945;-83
2024/01/04 04:26:03;;;;;;;;;;;5.40;99.90;;;;;;5125638;27;20348;-83
2024/01/04 04:28:29;;;;;;;;;;;5.40;99.90;;;;;;5107424;27;19973;-83
2024/01/04 04:30:54;;;;;;;;;;;5.30;99.90;;;;;;5121974;27;20357;-82
2024/01/04 04:33:20;;;;;;;;;;;5.70;99.90;;;;;;5109382;27;19927;-83
2024/01/04 04:35:45;;;;;;;;;;;5.70;99.90;;;;;;5096970;27;19931;-83
2024/01/04 04:38:11;;;;;;;;;;;5.40;99.90;;;;;;5108148;27;19935;-83
2024/01/04 04:40:40;;;;;;;;;;;4.70;99.90;;;;;;5124993;27;19924;-82
2024/01/04 04:43:05;;;;;;;;;;;5.80;99.90;;;;;;5122927;27;19934;-84
2024/01/04 04:45:31;;;;;;;;;;;5.50;99.90;;;;;;5106436;27;19958;-82
2024/01/04 04:47:57;;;;;;;;;;;5.70;99.90;;;;;;5090492;27;20357;-83
2024/01/04 04:50:28;;;;;;;;;;;5.40;99.90;;;;;;5124706;27;20032;-83
2024/01/04 04:52:54;;;;;;;;;;;5.70;99.90;;;;;;5124097;27;20014;-83
2024/01/04 04:55:19;;;;;;;;;;;5.30;99.90;;;;;;5122680;27;19927;-82
2024/01/04 04:57:45;;;;;;;;;;;5.30;99.90;;;;;;5125149;27;19935;-82
2024/01/04 05:00:11;;;;;;;;;;;5.40;99.90;;;;;;5122856;27;19923;-83
2024/01/04 05:02:36;;;;;;;;;;;5.60;99.90;;;;;;5106580;27;20006;-83
2024/01/04 05:05:02;;;;;;;;;;;5.00;99.90;;;;;;5125923;27;20018;-83
2024/01/04 05:07:28;;;;;;;;;;;5.50;99.90;;;;;;5114588;27;20046;-83
2024/01/04 05:09:53;;;;;;;;;;;5.50;99.90;;;;;;5125071;27;20021;-81
2024/01/04 05:12:19;;;;;;;;;;;5.30;99.90;;;;;;5107624;27;19926;-82
2024/01/04 05:14:44;;;;;;;;;;;5.70;99.90;;;;;;5105726;27;19927;-82
2024/01/04 05:17:10;;;;;;;;;;;5.40;99.90;;;;;;5107052;27;19927;-82
2024/01/04 05:19:36;;;;;;;;;;;5.40;99.90;;;;;;5093056;27;19931;-81
2024/01/04 05:22:03;;;;;;;;;;;5.30;99.90;;;;;;5108121;27;19962;-82
2024/01/04 05:24:29;;;;;;;;;;;5.50;99.90;;;;;;5124301;27;19927;-83
2024/01/04 05:26:54;;;;;;;;;;;5.40;99.90;;;;;;5105061;27;19930;-82
2024/01/04 05:29:20;;;;;;;;;;;5.40;99.90;;;;;;5121017;27;19961;-82
2024/01/04 05:31:45;;;;;;;;;;;5.40;99.90;;;;;;5089229;27;19923;-83
2024/01/04 05:34:11;;;;;;;;;;;5.40;99.90;;;;;;5087953;27;19931;-83
2024/01/04 05:36:37;;;;;;;;;;;5.40;99.90;;;;;;5104433;27;19923;-84
2024/01/04 05:39:03;;;;;;;;;;;5.30;99.90;;;;;;5104433;27;19929;-84
2024/01/04 05:41:29;;;;;;;;;;;5.60;99.90;;;;;;5112105;27;20320;-82
2024/01/04 05:43:55;;;;;;;;;;;5.60;99.90;;;;;;5107091;27;19976;-81
2024/01/04 05:46:20;;;;;;;;;;;5.30;99.90;;;;;;5114697;27;20353;-83
2024/01/04 05:48:46;;;;;;;;;;;5.20;99.90;;;;;;5089723;27;19931;-83
2024/01/04 05:51:12;;;;;;;;;;;5.20;99.90;;;;;;5121010;27;20587;-83
2024/01/04 05:53:37;;;;;;;;;;;5.20;99.90;;;;;;5106285;27;19923;-82
2024/01/04 05:56:03;;;;;;;;;;;5.40;99.90;;;;;;5121559;27;20026;-83
2024/01/04 05:58:29;;;;;;;;;;;5.30;99.90;;;;;;5087025;27;20311;-82
2024/01/04 06:00:55;;;;;;;;;;;5.50;99.90;;;;;;5106147;27;19937;-82
2024/01/04 06:03:20;;;;;;;;;;;5.00;99.90;;;;;;5087367;27;20037;-83
2024/01/04 06:05:46;;;;;;;;;;;5.30;99.90;;;;;;5088237;27;19934;-83
2024/01/04 06:08:11;;;;;;;;;;;5.30;99.90;;;;;;5094154;27;19969;-83
2024/01/04 06:10:37;;;;;;;;;;;5.40;99.90;;;;;;5093969;27;20365;-82
2024/01/04 06:13:03;;;;;;;;;;;5.40;99.90;;;;;;5106180;27;20444;-83
2024/01/04 06:15:28;;;;;;;;;;;5.20;99.90;;;;;;5103968;27;19923;-82
2024/01/04 06:17:54;;;;;;;;;;;5.30;99.90;;;;;;5106401;27;19927;-82
2024/01/04 06:20:20;;;;;;;;;;;5.30;99.90;;;;;;5105459;27;19929;-84
2024/01/04 06:22:46;;;;;;;;;;;6.20;99.90;;;;;;5105729;27;19931;-84
2024/01/04 06:25:12;;;;;;;;;;;5.20;99.90;;;;;;5090482;27;19966;-83
2024/01/04 06:27:37;;;;;;;;;;;5.30;99.90;;;;;;5119405;27;20385;-81
2024/01/04 06:30:03;;;;;;;;;;;4.90;99.90;;;;;;5108626;27;19978;-82
2024/01/04 06:32:29;;;;;;;;;;;5.10;99.90;;;;;;5107059;27;19931;-84
2024/01/04 06:34:54;;;;;;;;;;;5.20;99.90;;;;;;5104919;27;19928;-84
2024/01/04 06:37:20;;;;;;;;;;;5.30;99.90;;;;;;5102434;27;19971;-83
2024/01/04 06:39:49;;;;;;;;;;;4.90;99.90;;;;;;5111595;27;19931;-83
2024/01/04 06:42:19;;;;;;;;;;;5.30;99.90;;;;;;5126338;27;19988;-83
2024/01/04 06:44:47;;;;;;;;;;;5.20;99.90;;;;;;5105303;27;19931;-82
2024/01/04 06:47:13;;;;;;;;;;;5.10;99.90;;;;;;5121628;27;19976;-83
2024/01/04 06:49:38;;;;;;;;;;;5.10;99.90;;;;;;5103495;27;19988;-78
2024/01/04 06:52:04;;;;;;;;;;;5.40;99.90;;;;;;5135636;27;19923;-79
2024/01/04 06:54:31;;;;;;;;;;;4.90;99.90;;;;;;5117842;27;19926;-79
2024/01/04 06:56:56;;;;;;;;;;;5.40;99.90;;;;;;5122991;27;19937;-79
2024/01/04 06:59:22;;;;;;;;;;;5.00;99.90;;;;;;5085636;27;19931;-79
2024/01/04 07:01:51;;;;;;;;;;;5.00;99.90;;;;;;5117710;27;19937;-79
2024/01/04 07:04:16;;;;;;;;;;;5.20;99.90;;;;;;5118233;27;19927;-79
2024/01/04 07:06:42;;;;;;;;;;;5.30;99.90;;;;;;5105715;27;19931;-78
2024/01/04 07:09:07;;;;;;;;;;;4.90;99.90;;;;;;5102588;27;19923;-78
2024/01/04 07:11:33;;;;;;;;;;;4.90;99.90;;;;;;5121705;27;20029;-79
2024/01/04 07:13:58;;;;;;;;;;;4.90;99.90;;;;;;5121217;27;19923;-79
2024/01/04 07:16:24;;;;;;;;;;;5.60;99.90;;;;;;5119648;27;20479;-80
2024/01/04 07:18:50;;;;;;;;;;;5.10;99.90;;;;;;5118208;27;19923;-78
2024/01/04 07:21:17;;;;;;;;;;;4.80;99.90;;;;;;5119526;27;19927;-78
2024/01/04 07:23:43;;;;;;;;;;;5.00;99.90;;;;;;5120139;27;19923;-81
2024/01/04 07:26:08;;;;;;;;;;;5.20;99.90;;;;;;5137609;27;19931;-77
2024/01/04 07:28:34;;;;;;;;;;;4.90;99.90;;;;;;5123272;27;19930;-79
2024/01/04 07:30:59;;;;;;;;;;;5.00;99.90;;;;;;5120827;27;19923;-79
2024/01/04 07:33:26;;;;;;;;;;;4.80;99.90;;;;;;5118193;27;19927;-80
2024/01/04 07:35:52;;;;;;;;;;;5.00;99.90;;;;;;5117187;27;19935;-79
2024/01/04 07:38:17;;;;;;;;;;;5.50;99.90;;;;;;5084607;27;20270;-77
2024/01/04 07:40:43;;;;;;;;;;;4.80;99.90;;;;;;5120172;27;20495;-78
2024/01/04 07:43:08;;;;;;;;;;;5.20;99.90;;;;;;5085772;27;19923;-78
2024/01/04 07:45:36;;;;;;;;;;;5.00;99.90;;;;;;5116983;27;20421;-76
2024/01/04 07:48:02;;;;;;;;;;;4.70;99.90;;;;;;5107924;27;19931;-76
2024/01/04 07:50:33;;;;;;;;;;;5.20;99.90;;;;;;5120950;27;19937;-76
2024/01/04 07:52:58;;;;;;;;;;;4.70;99.90;;;;;;5104697;27;19926;-75
2024/01/04 07:55:24;;;;;;;;;;;5.10;99.90;;;;;;5104036;27;19934;-76
2024/01/04 07:57:49;;;;;;;;;;;5.10;99.90;;;;;;5100567;27;19931;-76
2024/01/04 08:00:15;;;;;;;;;;;4.80;99.90;;;;;;5134221;27;19985;-77
2024/01/04 08:02:41;;;;;;;;;;;4.70;99.90;;;;;;5107086;27;20381;-79
2024/01/04 08:05:07;;;;;;;;;;;4.80;99.90;;;;;;5114471;27;20410;-77
2024/01/04 08:07:33;;;;;;;;;;;5.10;99.90;;;;;;5104210;27;19939;-76
2024/01/04 08:09:59;;;;;;;;;;;4.90;99.90;;;;;;5119529;27;19935;-80
2024/01/04 08:12:24;;;;;;;;;;;4.80;99.90;;;;;;5119981;27;19979;-78
2024/01/04 08:14:51;;;;;;;;;;;5.20;99.90;;;;;;5121090;27;19976;-77
2024/01/04 08:17:16;;;;;;;;;;;5.00;99.90;;;;;;5120728;27;19934;-76
2024/01/04 08:19:44;;;;;;;;;;;5.00;99.90;;;;;;5120745;27;21615;-76
2024/01/04 08:22:09;;;;;;;;;;;5.00;99.90;;;;;;5135820;27;19981;-76
2024/01/04 08:24:36;;;;;;;;;;;5.20;99.90;;;;;;5101406;27;20073;-76
2024/01/04 08:27:02;;;;;;;;;;;5.20;99.90;;;;;;5121828;27;19959;-78
2024/01/04 08:29:28;;;;;;;;;;;4.80;99.90;;;;;;5103492;27;19934;-76
2024/01/04 08:31:53;;;;;;;;;;;5.00;99.90;;;;;;5138301;27;19927;-76
2024/01/04 08:34:19;;;;;;;;;;;5.20;99.90;;;;;;5105170;27;20018;-76
2024/01/04 08:36:44;;;;;;;;;;;5.10;99.90;;;;;;5122033;27;19931;-87
2024/01/04 08:39:11;;;;;;;;;;;4.90;99.90;;;;;;5120332;27;20335;-76
2024/01/04 08:41:36;;;;;;;;;;;4.90;99.90;;;;;;5121204;27;20293;-81
2024/01/04 08:44:02;;;;;;;;;;;5.10;99.90;;;;;;5122445;27;19935;-77
2024/01/04 08:46:28;;;;;;;;;;;5.20;99.90;;;;;;5120813;27;19991;-77
2024/01/04 08:48:53;;;;;;;;;;;4.90;99.90;;;;;;5122703;27;20022;-77
2024/01/04 08:51:19;;;;;;;;;;;4.90;99.90;;;;;;5120852;27;19927;-77
2024/01/04 08:53:45;;;;;;;;;;;5.10;99.90;;;;;;5105065;27;19942;-76
2024/01/04 08:56:13;;;;;;;;;;;5.20;99.90;;;;;;5108957;27;19927;-75
2024/01/04 08:58:39;;;;;;;;;;;5.00;99.90;;;;;;5121515;27;19927;-75
2024/01/04 09:01:05;;;;;;;;;;;5.30;99.90;;;;;;5108698;27;19953;-76
2024/01/04 09:03:31;;;;;;;;;;;5.10;99.90;;;;;;5107240;27;19976;-76
2024/01/04 09:05:56;;;;;;;;;;;5.30;99.90;;;;;;5095269;27;19983;-76
2024/01/04 09:08:22;;;;;;;;;;;5.30;99.90;;;;;;5122258;27;20466;-76
2024/01/04 09:10:47;;;;;;;;;;;5.30;99.90;;;;;;5121856;27;19957;-79
2024/01/04 09:13:14;;;;;;;;;;;5.50;99.90;;;;;;5103860;27;19923;-77
2024/01/04 09:15:39;;;;;;;;;;;5.10;99.90;;;;;;5122373;27;20009;-77
2024/01/04 09:18:05;;;;;;;;;;;5.00;99.90;;;;;;5104744;27;19938;-77
2024/01/04 09:20:30;;;;;;;;;;;5.20;99.90;;;;;;5105351;27;19931;-78
2024/01/04 09:22:56;;;;;;;;;;;5.20;99.90;;;;;;5120184;27;19960;-74
2024/01/04 09:25:22;;;;;;;;;;;5.10;99.90;;;;;;5138690;27;19930;-79
2024/01/04 09:27:47;;;;;;;;;;;5.10;99.90;;;;;;5103338;27;19927;-75
2024/01/04 09:30:13;;;;;;;;;;;5.30;99.90;;;;;;5118854;27;19927;-76
2024/01/04 09:32:39;;;;;;;;;;;5.20;99.90;;;;;;5120311;27;20271;-74
2024/01/04 09:35:05;;;;;;;;;;;5.60;99.90;;;;;;5105025;27;20428;-81
2024/01/04 09:37:30;;;;;;;;;;;5.50;99.90;;;;;;5122157;27;19922;-77
2024/01/04 09:39:56;;;;;;;;;;;5.60;99.90;;;;;;5104114;27;19986;-78
2024/01/04 09:42:23;;;;;;;;;;;5.40;99.90;;;;;;5139729;27;19923;-77
2024/01/04 09:44:49;;;;;;;;;;;5.40;99.90;;;;;;5121690;27;20644;-77
2024/01/04 09:47:17;;;;;;;;;;;5.30;99.90;;;;;;5120045;27;20325;-78
2024/01/04 09:49:43;;;;;;;;;;;5.40;99.90;;;;;;5104145;27;19927;-77
2024/01/04 09:52:11;;;;;;;;;;;5.40;99.90;;;;;;5118429;27;19923;-77
2024/01/04 09:54:39;;;;;;;;;;;5.60;99.90;;;;;;5104788;27;19927;-76
2024/01/04 09:57:07;;;;;;;;;;;5.50;99.90;;;;;;5119602;27;20155;-76
2024/01/04 09:59:33;;;;;;;;;;;5.60;99.90;;;;;;5120015;27;19931;-76
2024/01/04 10:02:00;;;;;;;;;;;5.60;99.90;;;;;;5121826;27;19950;-75
2024/01/04 10:04:25;;;;;;;;;;;5.60;99.90;;;;;;5105136;27;20518;-76
2024/01/04 10:06:53;;;;;;;;;;;5.40;99.90;;;;;;5101639;27;19935;-75
2024/01/04 10:09:28;;;;;;;;;;;5.60;99.90;;;;;;5120612;27;19987;-75
2024/01/04 10:11:59;;;;;;;;;;;5.50;99.90;;;;;;5122175;27;19931;-75
2024/01/04 10:14:28;;;;;;;;;;;5.80;99.90;;;;;;5139589;27;20290;-75
2024/01/04 10:16:56;;;;;;;;;;;5.90;99.90;;;;;;5136537;27;19959;-76
2024/01/04 10:19:22;;;;;;;;;;;5.90;99.90;;;;;;5133491;27;19938;-76
2024/01/04 10:21:48;;;;;;;;;;;5.60;99.90;;;;;;5104964;27;19931;-78
2024/01/04 10:24:35;;;;;;;;;;;5.60;99.90;;;;;;5117646;27;19959;-76
2024/01/04 10:27:01;;;;;;;;;;;5.80;99.90;;;;;;5117498;27;19927;-75
2024/01/04 10:29:27;;;;;;;;;;;6.00;99.90;;;;;;5097061;27;19969;-74
2024/01/04 10:31:57;;;;;;;;;;;6.00;99.90;;;;;;5104106;27;19979;-74
2024/01/04 10:34:22;;;;;;;;;;;5.90;99.90;;;;;;5121262;27;19928;-75
2024/01/04 10:36:48;;;;;;;;;;;5.70;99.90;;;;;;5116189;27;20301;-74
2024/01/04 10:39:20;;;;;;;;;;;5.80;99.90;;;;;;5117371;27;19993;-74
2024/01/04 10:41:59;;;;;;;;;;;6.10;99.90;;;;;;5123394;27;19923;-74
2024/01/04 10:44:26;;;;;;;;;;;6.10;99.90;;;;;;5121106;27;19930;-75
2024/01/04 10:46:56;;;;;;;;;;;6.30;99.90;;;;;;5120109;27;20492;-75
2024/01/04 10:49:22;;;;;;;;;;;6.30;99.90;;;;;;5123894;27;19927;-74
2024/01/04 10:51:51;;;;;;;;;;;6.00;99.90;;;;;;5119539;27;19931;-76
2024/01/04 10:54:17;;;;;;;;;;;6.30;99.90;;;;;;5101718;27;19938;-75
2024/01/04 10:56:44;;;;;;;;;;;6.20;99.90;;;;;;5116965;27;19939;-75
2024/01/04 10:59:11;;;;;;;;;;;6.20;99.90;;;;;;5117740;27;19996;-76
2024/01/04 11:01:37;;;;;;;;;;;6.50;99.90;;;;;;5104997;27;19934;-76
2024/01/04 11:04:03;;;;;;;;;;;6.60;99.90;;;;;;5118957;27;19934;-78
2024/01/04 11:06:33;;;;;;;;;;;6.50;99.90;;;;;;5117234;27;20282;-78
2024/01/04 11:08:59;;;;;;;;;;;6.30;99.90;;;;;;5136035;27;19972;-76
2024/01/04 11:11:25;;;;;;;;;;;6.50;99.90;;;;;;5119457;27;19962;-78
2024/01/04 11:13:51;;;;;;;;;;;6.30;99.90;;;;;;5102866;27;19923;-77
2024/01/04 11:16:32;;;;;;;;;;;6.70;99.90;;;;;;5098492;27;20369;-76
2024/01/04 11:19:18;;;;;;;;;;;6.60;99.90;;;;;;5115919;27;19927;-76
2024/01/04 11:22:07;;;;;;;;;;;6.50;99.90;;;;;;5092251;27;20014;-77
2024/01/04 11:24:33;;;;;;;;;;;6.60;99.90;;;;;;5104046;27;19935;-77
2024/01/04 11:26:59;;;;;;;;;;;6.60;99.90;;;;;;5116751;27;19923;-76
2024/01/04 11:29:25;;;;;;;;;;;6.30;99.90;;;;;;5109095;27;19975;-76
2024/01/04 11:31:51;;;;;;;;;;;6.50;99.90;;;;;;5117611;27;19923;-76
2024/01/04 11:34:18;;;;;;;;;;;6.60;99.90;;;;;;5103908;27;19938;-78
2024/01/04 11:36:43;;;;;;;;;;;6.50;99.90;;;;;;5119386;27;21043;-75
2024/01/04 11:39:10;;;;;;;;;;;6.40;99.90;;;;;;5115902;27;19931;-76
2024/01/04 11:41:36;;;;;;;;;;;6.40;99.90;;;;;;5098976;27;19927;-76
2024/01/04 11:44:14;;;;;;;;;;;6.60;99.90;;;;;;5116323;27;19927;-78
2024/01/04 11:46:50;;;;;;;;;;;6.60;99.90;;;;;;5101445;27;19983;-79
2024/01/04 11:49:32;;;;;;;;;;;6.60;99.90;;;;;;5121805;27;19931;-78
2024/01/04 11:52:07;;;;;;;;;;;6.70;99.90;;;;;;5124673;27;19927;-78
2024/01/04 11:54:36;;;;;;;;;;;6.60;99.90;;;;;;5105810;27;19934;-78
2024/01/04 11:57:23;;;;;;;;;;;6.50;99.90;;;;;;5123814;27;19969;-78
2024/01/04 11:59:50;;;;;;;;;;;6.60;99.90;;;;;;5116979;27;19934;-78
2024/01/04 12:02:20;;;;;;;;;;;6.80;99.90;;;;;;5142396;27;20266;-78
2024/01/04 12:04:47;;;;;;;;;;;6.70;99.90;;;;;;5103437;27;19930;-78
2024/01/04 12:07:16;;;;;;;;;;;6.80;99.90;;;;;;5121088;27;19931;-78
2024/01/04 12:10:10;;;;;;;;;;;5.90;99.90;;;;;;5139678;27;20256;-78
2024/01/04 12:12:39;;;;;;;;;;;6.80;99.90;;;;;;5097950;27;20374;-78
2024/01/04 12:15:05;;;;;;;;;;;6.80;99.90;;;;;;5122842;27;19934;-77
2024/01/04 12:17:31;;;;;;;;;;;6.80;99.90;;;;;;5107361;27;19927;-78
2024/01/04 12:19:57;;;;;;;;;;;6.80;99.90;;;;;;5106048;27;20391;-78
2024/01/04 12:22:24;;;;;;;;;;;7.00;99.90;;;;;;5123775;27;20425;-77
2024/01/04 12:24:49;;;;;;;;;;;6.80;99.90;;;;;;5099202;27;20054;-77
2024/01/04 12:27:15;;;;;;;;;;;6.80;99.90;;;;;;5124550;27;19931;-78
2024/01/04 12:29:42;;;;;;;;;;;6.80;99.90;;;;;;5122104;27;20266;-78
2024/01/04 12:32:08;;;;;;;;;;;6.80;99.90;;;;;;5122907;27;19931;-78
2024/01/04 12:34:34;;;;;;;;;;;7.00;99.90;;;;;;5142855;27;19931;-79
2024/01/04 12:37:05;;;;;;;;;;;6.80;99.90;;;;;;5124381;27;20393;-82
2024/01/04 12:39:31;;;;;;;;;;;6.70;99.90;;;;;;5109862;27;20324;-79
2024/01/04 12:41:57;;;;;;;;;;;6.50;99.90;;;;;;5142110;27;20189;-78
2024/01/04 12:44:24;;;;;;;;;;;6.70;99.90;;;;;;5092911;27;19923;-82
2024/01/04 12:46:49;;;;;;;;;;;6.70;99.90;;;;;;5125196;27;20025;-79
2024/01/04 12:49:15;;;;;;;;;;;6.60;99.90;;;;;;5099542;27;20128;-78
2024/01/04 12:51:42;;;;;;;;;;;6.70;99.90;;;;;;5125286;27;19922;-79
2024/01/04 12:54:09;;;;;;;;;;;6.60;99.90;;;;;;5124957;27;19923;-76
2024/01/04 12:56:35;;;;;;;;;;;6.70;99.90;;;;;;5125848;27;19927;-76
2024/01/04 12:59:03;;;;;;;;;;;6.70;99.90;;;;;;5123762;27;20070;-77
2024/01/04 13:01:28;;;;;;;;;;;6.60;99.90;;;;;;5124526;27;20523;-76
2024/01/04 13:03:59;;;;;;;;;;;6.90;99.90;;;;;;5142967;27;20366;-79
2024/01/04 13:06:25;;;;;;;;;;;6.80;99.90;;;;;;5116045;27;19927;-79
2024/01/04 13:08:50;;;;;;;;;;;6.70;99.90;;;;;;5122281;27;19935;-80
2024/01/04 13:11:17;;;;;;;;;;;6.90;99.90;;;;;;5106558;27;19986;-80
2024/01/04 13:13:44;;;;;;;;;;;6.90;99.90;;;;;;5139979;27;20839;-80
2024/01/04 13:16:20;;;;;;;;;;;6.80;99.90;;;;;;5125314;27;20302;-77
2024/01/04 13:18:52;;;;;;;;;;;6.90;99.90;;;;;;5124594;27;19923;-79
2024/01/04 13:21:19;;;;;;;;;;;7.00;99.90;;;;;;5107122;27;19933;-79
2024/01/04 13:23:53;;;;;;;;;;;6.90;99.90;;;;;;5141912;27;19927;-79
2024/01/04 13:26:19;;;;;;;;;;;6.90;99.90;;;;;;5107107;27;19930;-78
2024/01/04 13:28:50;;;;;;;;;;;7.00;99.90;;;;;;5121230;27;19939;-79
2024/01/04 13:31:16;;;;;;;;;;;7.00;99.90;;;;;;5122609;27;19988;-78
2024/01/04 13:33:41;;;;;;;;;;;7.00;99.90;;;;;;5107186;27;20508;-80
2024/01/04 13:36:08;;;;;;;;;;;7.00;99.90;;;;;;5124436;27;20392;-80
2024/01/04 13:38:33;;;;;;;;;;;7.00;99.90;;;;;;5125755;27;19923;-78
2024/01/04 13:40:59;;;;;;;;;;;7.10;99.90;;;;;;5142644;27;19934;-79
2024/01/04 13:43:24;;;;;;;;;;;6.90;99.90;;;;;;5108069;27;20368;-78
2024/01/04 13:45:52;;;;;;;;;;;6.80;99.90;;;;;;5123176;27;20011;-79
2024/01/04 13:48:24;;;;;;;;;;;6.80;99.90;;;;;;5125007;27;19934;-90
2024/01/04 13:50:49;;;;;;;;;;;6.90;99.90;;;;;;5109282;27;19962;-88
2024/01/04 13:53:16;;;;;;;;;;;6.70;99.90;;;;;;5127171;27;20312;-84
2024/01/04 13:55:42;;;;;;;;;;;6.60;99.90;;;;;;5132861;27;19930;-85
2024/01/04 13:58:08;;;;;;;;;;;6.60;99.90;;;;;;5109954;27;19923;-81
2024/01/04 14:00:33;;;;;;;;;;;6.60;99.90;;;;;;5106762;27;19974;-82
2024/01/04 14:03:00;;;;;;;;;;;6.40;99.90;;;;;;5123607;27;19934;-78
2024/01/04 14:05:26;;;;;;;;;;;6.30;99.90;;;;;;5122082;27;19923;-81
2024/01/04 14:07:52;;;;;;;;;;;6.30;99.90;;;;;;5123002;27;20009;-78
2024/01/04 14:10:18;;;;;;;;;;;6.20;99.90;;;;;;5121412;27;19976;-78
2024/01/04 14:12:43;;;;;;;;;;;6.20;99.90;;;;;;5124774;27;19923;-78
2024/01/04 14:15:09;;;;;;;;;;;6.20;99.90;;;;;;5104663;27;20369;-80
2024/01/04 14:17:38;;;;;;;;;;;6.10;99.90;;;;;;5108158;27;19927;-81
2024/01/04 14:20:06;;;;;;;;;;;5.90;99.90;;;;;;5123967;27;21863;-80
2024/01/04 14:22:32;;;;;;;;;;;5.90;99.90;;;;;;5123398;27;20017;-79
2024/01/04 14:24:58;;;;;;;;;;;5.90;99.90;;;;;;5121827;27;20029;-80
2024/01/04 14:27:23;;;;;;;;;;;5.90;99.90;;;;;;5142018;27;20346;-81
2024/01/04 14:29:52;;;;;;;;;;;6.00;99.90;;;;;;5122284;27;20019;-80